Time;durP1;ratioP1;P1;durP2;ratioP2;P2;SDS_P1;SDS_P2;PMS_P1;PMS_P2;Temp;Humidity;BMP_temperature;BMP_pressure;BME280_temperature;BME280_humidity;BME280_pressure;Samples;Min_cycle;Max_cycle;Signal;HPM_P1;HPM_P2
2023/10/11 00:00:57;;;;;;;33.53;13.80;;;;;;;12.46;100.00;99404.84;4467743;32;20130;-78
2023/10/11 00:05:55;;;;;;;25.88;13.82;;;;;;;12.47;100.00;99398.59;4469186;32;20179;-78
2023/10/11 00:08:25;;;;;;;27.65;14.68;;;;;;;12.45;100.00;99405.78;4469150;32;20201;-78
2023/10/11 00:10:59;;;;;;;28.35;14.48;;;;;;;12.42;100.00;99398.16;4469062;32;20114;-78
2023/10/11 00:13:32;;;;;;;26.50;13.10;;;;;;;12.44;100.00;99398.84;4469124;32;20085;-78
2023/10/11 00:16:07;;;;;;;26.05;12.48;;;;;;;12.47;100.00;99401.22;4475477;32;20088;-78
2023/10/11 00:18:39;;;;;;;28.45;13.00;;;;;;;12.43;100.00;99398.03;4483690;32;20092;-78
2023/10/11 00:21:15;;;;;;;27.52;13.10;;;;;;;12.40;100.00;99394.84;4483728;32;20119;-78
2023/10/11 00:23:46;;;;;;;32.03;12.50;;;;;;;12.33;100.00;99401.59;4484536;31;20481;-78
2023/10/11 00:26:17;;;;;;;25.02;13.62;;;;;;;12.28;100.00;99398.53;4484732;32;20458;-78
2023/10/11 00:28:46;;;;;;;27.92;12.73;;;;;;;12.21;100.00;99400.84;4484651;31;20096;-78
2023/10/11 00:31:16;;;;;;;24.75;11.93;;;;;;;12.15;100.00;99399.56;4484480;31;20096;-78
2023/10/11 00:33:46;;;;;;;29.65;12.35;;;;;;;12.11;100.00;99398.16;4483587;32;20114;-78
2023/10/11 00:36:15;;;;;;;26.98;12.70;;;;;;;11.96;100.00;99388.97;4484525;31;20088;-78
2023/10/11 00:38:47;;;;;;;32.63;12.70;;;;;;;11.97;100.00;99395.91;4484626;31;20570;-78
2023/10/11 00:41:18;;;;;;;26.70;14.15;;;;;;;11.94;100.00;99391.75;4484556;31;20441;-78
2023/10/11 00:43:51;;;;;;;27.85;13.40;;;;;;;11.94;100.00;99393.53;4484542;31;20127;-78
2023/10/11 00:46:22;;;;;;;28.02;13.02;;;;;;;11.85;100.00;99385.47;4484470;31;20080;-78
2023/10/11 00:49:02;;;;;;;25.52;14.32;;;;;;;11.89;100.00;99386.03;4484294;31;20137;-78
2023/10/11 00:51:31;;;;;;;26.23;12.95;;;;;;;11.91;100.00;99381.47;4484383;31;20110;-78
2023/10/11 00:54:04;;;;;;;30.90;13.98;;;;;;;11.85;100.00;99382.84;4476551;31;20092;-78
2023/10/11 00:56:32;;;;;;;29.10;12.68;;;;;;;11.85;100.00;99382.84;4468618;32;20065;-78
2023/10/11 00:59:14;;;;;;;28.27;12.95;;;;;;;11.77;100.00;99376.56;4468576;32;20089;-78
2023/10/11 01:01:43;;;;;;;26.23;12.77;;;;;;;11.76;100.00;99380.97;4468605;32;20085;-78
2023/10/11 01:04:12;;;;;;;25.77;12.90;;;;;;;11.73;100.00;99373.34;4468690;32;20167;-78
2023/10/11 01:06:40;;;;;;;29.45;13.25;;;;;;;11.74;100.00;99372.41;4468496;32;20146;-78
2023/10/11 01:09:26;;;;;;;28.17;14.05;;;;;;;11.64;100.00;99369.72;4468285;32;20090;-78
2023/10/11 01:11:53;;;;;;;29.27;14.15;;;;;;;11.64;100.00;99368.87;4466932;32;20108;-78
2023/10/11 01:14:23;;;;;;;28.92;13.82;;;;;;;11.60;100.00;99362.25;4468244;32;20092;-78
2023/10/11 01:16:55;;;;;;;28.58;14.00;;;;;;;11.73;100.00;99373.34;4479396;32;20180;-78
2023/10/11 01:19:26;;;;;;;29.37;12.77;;;;;;;11.74;100.00;99379.44;4484039;31;20088;-78
2023/10/11 01:21:59;;;;;;;28.02;14.02;;;;;;;11.73;100.00;99383.84;4483836;31;20104;-78
2023/10/11 01:24:26;;;;;;;27.15;13.38;;;;;;;11.74;100.00;99385.53;4471395;31;20107;-78
2023/10/11 01:26:56;;;;;;;25.42;13.20;;;;;;;11.76;100.00;99382.78;4483706;31;20434;-78
2023/10/11 01:29:24;;;;;;;31.23;13.57;;;;;;;11.70;100.00;99389.34;4483706;31;20092;-78
2023/10/11 01:31:51;;;;;;;23.52;13.32;;;;;;;11.65;100.00;99388.94;4483736;31;20505;-78
2023/10/11 01:34:18;;;;;;;29.42;14.43;;;;;;;11.64;100.00;99380.22;4482458;32;20088;-77
2023/10/11 01:36:47;;;;;;;29.50;14.77;;;;;;;11.67;100.00;99384.37;4483561;31;20084;-78
2023/10/11 01:39:14;;;;;;;29.80;13.30;;;;;;;11.78;100.00;99376.44;4484015;31;20454;-78
2023/10/11 01:41:42;;;;;;;31.25;14.25;;;;;;;11.86;100.00;99384.47;4483706;32;20112;-78
2023/10/11 01:44:11;;;;;;;31.58;14.82;;;;;;;11.79;100.00;99378.09;4484548;31;20139;-78
2023/10/11 01:46:39;;;;;;;26.30;14.15;;;;;;;11.86;100.00;99381.84;4485848;31;20122;-78
2023/10/11 01:49:09;;;;;;;32.28;14.80;;;;;;;11.88;100.00;99384.34;4485788;31;20480;-78
2023/10/11 01:51:38;;;;;;;34.83;16.12;;;;;;;11.82;100.00;99379.62;4485933;31;20156;-78
2023/10/11 01:54:06;;;;;;;28.90;13.93;;;;;;;11.85;100.00;99388.09;4476919;31;20445;-78
2023/10/11 01:56:34;;;;;;;28.27;14.75;;;;;;;11.76;100.00;99393.28;4468730;32;20111;-78
2023/10/11 01:59:04;;;;;;;32.78;15.00;;;;;;;11.71;100.00;99393.66;4470153;32;20093;-78
2023/10/11 02:01:41;;;;;;;26.98;14.15;;;;;;;11.64;100.00;99389.88;4470309;32;20180;-78
2023/10/11 02:04:20;;;;;;;30.30;14.23;;;;;;;11.58;100.00;99393.00;4470048;32;20107;-78
2023/10/11 02:06:48;;;;;;;33.40;14.50;;;;;;;11.60;100.00;99388.50;4470286;32;20073;-78
2023/10/11 02:09:21;;;;;;;32.20;14.15;;;;;;;11.52;100.00;99384.72;4468946;32;20128;-78
2023/10/11 02:11:54;;;;;;;28.43;13.20;;;;;;;11.57;100.00;99388.72;4469857;32;20507;-78
2023/10/11 02:14:28;;;;;;;29.37;13.37;;;;;;;11.58;100.00;99379.91;4469947;32;20111;-78
2023/10/11 02:16:55;;;;;;;29.95;14.65;;;;;;;11.59;100.00;99381.56;4481918;32;20081;-78
2023/10/11 02:19:24;;;;;;;30.98;13.82;;;;;;;11.56;100.00;99387.06;4485472;31;20089;-78
2023/10/11 02:21:53;;;;;;;26.10;12.68;;;;;;;11.51;100.00;99387.47;4485635;31;20119;-78
2023/10/11 02:24:25;;;;;;;25.08;14.05;;;;;;;11.54;100.00;99388.03;4485485;31;20147;-78
2023/10/11 02:26:54;;;;;;;32.20;15.55;;;;;;;11.52;100.00;99376.84;4485588;31;20111;-78
2023/10/11 02:29:23;;;;;;;29.58;13.98;;;;;;;11.36;100.00;99387.75;4485513;31;20444;-78
2023/10/11 02:31:52;;;;;;;27.00;13.75;;;;;;;11.50;100.00;99389.22;4485468;31;20119;-78
2023/10/11 02:34:24;;;;;;;26.33;12.85;;;;;;;11.45;100.00;99386.16;4485374;31;20175;-78
2023/10/11 02:37:10;;;;;;;25.52;13.38;;;;;;;11.46;100.00;99381.75;4485504;32;20080;-78
2023/10/11 02:39:44;;;;;;;29.45;13.32;;;;;;;11.43;100.00;99372.38;4485496;31;20085;-78
2023/10/11 02:42:17;;;;;;;38.22;14.50;;;;;;;11.38;100.00;99382.38;4485492;31;20088;-78
2023/10/11 02:44:48;;;;;;;27.20;15.07;;;;;;;11.41;100.00;99378.69;4485362;32;20103;-78
2023/10/11 02:47:22;;;;;;;32.97;15.20;;;;;;;11.30;100.00;99385.66;4485308;32;20088;-78
2023/10/11 02:49:53;;;;;;;30.33;14.00;;;;;;;11.27;100.00;99378.03;4485256;31;20493;-78
2023/10/11 02:52:29;;;;;;;29.95;13.75;;;;;;;11.22;100.00;99368.87;4485719;31;20569;-78
2023/10/11 02:54:59;;;;;;;29.58;14.35;;;;;;;11.16;100.00;99365.81;4470863;31;20093;-78
2023/10/11 02:57:26;;;;;;;38.20;15.30;;;;;;;11.17;100.00;99371.88;4469010;32;20517;-78
2023/10/11 02:59:53;;;;;;;35.28;16.12;;;;;;;11.11;100.00;99367.13;4469410;32;20513;-78
2023/10/11 03:02:21;;;;;;;36.38;15.85;;;;;;;11.18;100.00;99374.38;4469675;32;20541;-78
2023/10/11 03:04:50;;;;;;;34.95;16.05;;;;;;;11.22;100.00;99376.72;4469745;32;20523;-78
2023/10/11 03:07:23;;;;;;;37.67;14.60;;;;;;;11.27;100.00;99369.34;4469504;32;20454;-78
2023/10/11 03:09:55;;;;;;;33.72;15.20;;;;;;;11.19;100.00;99376.03;4469845;32;20494;-78
2023/10/11 03:12:38;;;;;;;31.70;14.57;;;;;;;11.12;100.00;99376.66;4469503;32;20096;-78
2023/10/11 03:15:11;;;;;;;30.60;14.27;;;;;;;11.09;100.00;99369.06;4469739;32;20108;-78
2023/10/11 03:17:42;;;;;;;46.75;17.15;;;;;;;11.10;100.00;99371.56;4485089;31;20088;-78
2023/10/11 03:20:36;;;;;;;52.20;16.60;;;;;;;11.17;100.00;99372.72;4485208;31;20076;-78
2023/10/11 03:23:10;;;;;;;39.60;15.60;;;;;;;11.23;100.00;99366.13;4485211;31;20397;-78
2023/10/11 03:25:38;;;;;;;67.93;16.73;;;;;;;11.13;100.00;99365.25;4484955;31;20084;-78
2023/10/11 03:28:06;;;;;;;62.45;17.25;;;;;;;11.04;100.00;99371.19;4485026;31;20517;-78
2023/10/11 03:30:36;;;;;;;107.37;18.90;;;;;;;11.07;100.00;99373.59;4485121;31;20157;-78
2023/10/11 03:33:06;;;;;;;108.03;19.52;;;;;;;11.04;100.00;99377.31;4485145;31;20110;-78
2023/10/11 03:35:38;;;;;;;140.23;19.58;;;;;;;11.11;100.00;99373.22;4484936;31;20097;-78
2023/10/11 03:38:17;;;;;;;126.65;20.23;;;;;;;11.15;100.00;99379.03;4484966;32;20153;-78
2023/10/11 03:41:07;;;;;;;123.60;21.73;;;;;;;11.17;100.00;99382.34;4485075;31;20085;-78
2023/10/11 03:43:40;;;;;;;183.50;27.60;;;;;;;11.16;100.00;99373.66;4484972;31;20442;-78
2023/10/11 03:46:10;;;;;;;135.35;20.98;;;;;;;11.19;100.00;99378.66;4484792;32;20084;-78
2023/10/11 03:48:44;;;;;;;136.02;20.08;;;;;;;11.18;100.00;99374.38;4484915;32;20159;-78
2023/10/11 03:51:12;;;;;;;96.10;19.23;;;;;;;11.24;100.00;99377.47;4484915;31;20434;-78
2023/10/11 03:53:39;;;;;;;132.37;20.30;;;;;;;11.24;100.00;99380.09;4478942;31;20092;-78
2023/10/11 03:56:07;;;;;;;105.85;21.75;;;;;;;11.21;100.00;99383.78;4469301;32;20101;-78
2023/10/11 03:58:37;;;;;;;126.35;22.20;;;;;;;11.25;100.00;99379.09;4469360;32;20093;-78
2023/10/11 04:01:23;;;;;;;178.70;22.25;;;;;;;11.24;100.00;99377.47;4469126;32;20116;-78
2023/10/11 04:03:53;;;;;;;138.60;22.75;;;;;;;11.30;100.00;99384.81;4469145;32;20084;-78
2023/10/11 04:06:22;;;;;;;168.15;24.65;;;;;;;11.33;100.00;99381.94;4468857;32;20876;-78
2023/10/11 04:08:56;;;;;;;115.50;22.52;;;;;;;11.33;100.00;99376.69;4467636;32;20165;-78
2023/10/11 04:14:17;;;;;;;143.05;22.73;;;;;;;11.40;100.00;99382.25;4468998;32;20534;-78
2023/10/11 04:16:45;;;;;;;117.85;23.15;;;;;;;11.51;100.00;99390.91;4479611;32;20092;-78
2023/10/11 04:19:13;;;;;;;106.55;20.02;;;;;;;11.56;100.00;99380.03;4484624;31;20418;-78
2023/10/11 04:22:12;;;;;;;140.15;23.42;;;;;;;11.56;100.00;99374.78;4484534;32;20356;-78
2023/10/11 04:24:34;;;;;;;117.28;22.98;;;;;;;11.58;100.00;99369.41;4484426;31;20080;-78
2023/10/11 04:29:50;;;;;;;140.45;24.23;;;;;;;11.67;100.00;99379.97;4484505;31;20517;-78
2023/10/11 04:38:03;;;;;;;118.80;24.83;;;;;;;11.70;100.00;99390.22;4483241;32;20123;-78
2023/10/11 04:43:08;;;;;;;176.90;26.08;;;;;;;11.81;100.00;99396.31;4484582;31;20080;-78
2023/10/11 04:45:45;;;;;;;186.77;24.37;;;;;;;11.76;100.00;99396.72;4484333;31;20096;-78
2023/10/11 04:48:29;;;;;;;142.65;22.25;;;;;;;11.68;100.00;99399.16;4483982;31;20515;-78
2023/10/11 04:51:07;;;;;;;176.82;23.20;;;;;;;11.79;100.00;99393.84;4484366;31;20475;-78
2023/10/11 04:59:36;;;;;;;247.77;28.55;;;;;;;11.81;100.00;99402.44;4435015;32;20580;-78
2023/10/11 05:02:23;;;;;;;143.55;23.05;;;;;;;11.83;100.00;99400.50;4448197;32;20521;-78
2023/10/11 05:04:54;;;;;;;237.82;28.83;;;;;;;11.90;100.00;99403.44;4446897;32;20120;-78
2023/10/11 05:07:22;;;;;;;132.55;25.52;;;;;;;11.95;100.00;99398.66;4444348;32;20192;-78
2023/10/11 05:12:41;;;;;;;181.57;24.50;;;;;;;12.13;100.00;99406.78;4441829;32;20650;-78
2023/10/11 05:15:09;;;;;;;169.65;23.80;;;;;;;12.27;100.00;99420.53;4439918;32;20094;-78
2023/10/11 05:17:41;;;;;;;134.05;22.17;;;;;;;12.21;100.00;99414.81;4444628;32;20100;-77
2023/10/11 05:27:57;;;;;;;111.32;23.95;;;;;;;11.94;100.00;99433.75;4452233;32;20105;-79
2023/10/11 05:36:13;;;;;;;66.60;19.67;;;;;;;12.05;100.00;99440.72;4454129;32;20101;-77
2023/10/11 05:52:25;;;;;;;112.78;20.95;;;;;;;12.37;100.00;99424.00;4485312;31;20085;-79
2023/10/11 05:54:56;;;;;;;132.98;26.67;;;;;;;12.27;100.00;99428.41;4482855;31;20100;-78
2023/10/11 05:57:27;;;;;;;113.62;20.23;;;;;;;12.26;100.00;99424.91;4482901;31;20447;-78
2023/10/11 05:59:55;;;;;;;132.50;20.20;;;;;;;12.30;100.00;99420.25;4484172;32;20127;-78
2023/10/11 06:02:22;;;;;;;142.13;19.70;;;;;;;12.34;100.00;99429.50;4483784;31;20088;-77
2023/10/11 06:04:50;;;;;;;90.03;19.20;;;;;;;12.50;100.00;99437.75;4485016;32;20100;-77
2023/10/11 06:07:19;;;;;;;136.85;19.42;;;;;;;12.59;100.00;99433.50;4482737;32;20093;-77
2023/10/11 06:09:52;;;;;;;286.75;26.52;;;;;;;12.57;100.00;99445.94;4484013;31;20096;-75
2023/10/11 06:12:23;;;;;;;140.77;23.02;;;;;;;12.59;100.00;99446.63;4484333;32;20227;-76
2023/10/11 06:14:52;;;;;;;119.95;23.35;;;;;;;12.56;100.00;99452.16;4485026;32;20152;-77
2023/10/11 06:17:32;;;;;;;172.40;21.98;;;;;;;12.65;100.00;99448.72;4484591;31;20176;-78
2023/10/11 06:22:46;;;;;;;138.35;19.83;;;;;;;12.83;100.00;99450.72;4479008;32;20092;-79
2023/10/11 06:25:22;;;;;;;156.30;18.10;;;;;;;12.93;100.00;99443.69;4476896;31;20088;-78
2023/10/11 06:30:27;;;;;;;125.90;17.80;;;;;;;13.31;100.00;99439.44;4474748;31;20104;-76
2023/10/11 06:32:56;;;;;;;108.50;17.62;;;;;;;13.51;100.00;99445.56;4474955;32;20486;-77
2023/10/11 06:35:24;;;;;;;147.55;17.52;;;;;;;13.73;100.00;99448.84;4471496;32;20092;-78
2023/10/11 06:37:52;;;;;;;120.95;19.25;;;;;;;13.75;100.00;99446.94;4472923;32;20109;-77
2023/10/11 06:40:38;;;;;;;91.00;17.10;;;;;;;13.69;100.00;99442.19;4479961;31;20167;-80
2023/10/11 06:43:07;;;;;;;109.05;17.40;;;;;;;13.57;100.00;99438.91;4470301;32;20101;-81
2023/10/11 06:45:35;;;;;;;95.07;16.12;;;;;;;13.44;100.00;99441.81;4470318;32;20093;-79
2023/10/11 06:48:07;;;;;;;106.93;17.60;;;;;;;13.73;100.00;99443.59;4472210;32;20430;-80
2023/10/11 06:50:36;;;;;;;134.82;17.67;;;;;;;13.72;100.00;99441.94;4474498;31;20119;-77
2023/10/11 06:53:08;;;;;;;157.95;20.00;;;;;;;13.79;100.00;99448.28;4467474;31;20164;-79
2023/10/11 06:55:39;;;;;;;129.77;19.27;;;;;;;13.64;100.00;99446.09;4468098;31;20137;-75
2023/10/11 06:58:15;;;;;;;69.78;15.73;;;;;;;13.81;100.00;99449.00;4472936;32;20123;-77
2023/10/11 07:00:48;;;;;;;60.30;15.93;;;;;;;14.22;100.00;99449.59;4471797;32;20099;-77
2023/10/11 07:06:10;;;;;;;89.00;19.83;;;;;;;14.55;100.00;99461.38;4470298;32;20092;-77
2023/10/11 07:08:49;;;;;;;45.35;15.50;;;;;;;14.70;100.00;99461.78;4471077;32;20097;-77
2023/10/11 07:11:50;;;;;;;91.15;19.08;;;;;;;14.84;100.00;99462.25;4474646;32;20101;-76
2023/10/11 07:14:18;;;;;;;67.87;18.65;;;;;;;14.95;100.00;99458.59;4467022;32;20178;-76
2023/10/11 07:16:46;;;;;;;71.45;17.83;;;;;;;15.12;100.00;99462.22;4472979;32;20156;-77
2023/10/11 07:19:16;;;;;;;71.57;19.48;;;;;;;15.14;100.00;99465.53;4475769;31;20487;-76
2023/10/11 07:27:07;;;;;;;47.33;16.95;;;;;;;16.10;100.00;99465.69;4466539;32;20101;-77
2023/10/11 07:29:44;;;;;;;47.95;17.48;;;;;;;16.18;100.00;99464.91;4465965;32;20088;-77
2023/10/11 07:32:18;;;;;;;50.47;16.73;;;;;;;16.56;100.00;99470.72;4469898;32;20141;-77
2023/10/11 07:34:54;;;;;;;41.58;14.75;;;;;;;16.82;100.00;99468.06;4468290;31;20166;-77
2023/10/11 07:37:26;;;;;;;44.95;16.02;;;;;;;16.81;100.00;99470.84;4465121;31;20122;-77
2023/10/11 07:40:00;;;;;;;32.63;13.70;;;;;;;16.41;100.00;99469.69;4466871;32;20161;-77
2023/10/11 07:42:36;;;;;;;40.00;14.05;;;;;;;16.43;100.00;99471.19;4468417;31;20123;-77
2023/10/11 07:45:12;;;;;;;40.33;14.80;;;;;;;16.61;100.00;99473.75;4467413;32;20123;-77
2023/10/11 07:47:45;;;;;;;36.95;14.65;;;;;;;16.84;100.00;99479.28;4469835;32;20072;-77
2023/10/11 07:50:14;;;;;;;37.70;14.97;;;;;;;16.92;100.00;99475.06;4471060;31;20138;-76
2023/10/11 07:52:42;;;;;;;38.72;14.38;;;;;;;17.08;100.00;99477.75;4473218;32;20125;-77
2023/10/11 07:55:12;;;;;;;30.70;12.20;;;;;;;17.12;100.00;99479.09;4467182;32;20136;-77
2023/10/11 07:57:44;;;;;;;39.05;14.32;;;;;;;17.14;100.00;99474.47;4470826;32;20559;-77
2023/10/11 08:00:18;;;;;;;32.25;13.70;;;;;;;17.42;100.00;99468.03;4470858;31;20148;-77
2023/10/11 08:03:02;;;;;;;36.97;14.52;;;;;;;17.83;100.00;99476.00;4466016;32;20084;-77
2023/10/11 08:05:46;;;;;;;33.08;15.05;;;;;;;18.15;100.00;99477.81;4466357;32;20076;-77
2023/10/11 08:08:14;;;;;;;33.72;16.30;;;;;;;17.86;100.00;99481.78;4465099;32;20437;-76
2023/10/11 08:10:45;;;;;;;32.90;14.85;;;;;;;17.72;100.00;99477.97;4472047;32;20807;-76
2023/10/11 08:13:23;;;;;;;39.67;16.87;;;;;;;17.70;100.00;99487.12;4468990;31;20101;-76
2023/10/11 08:15:57;;;;;;;34.45;17.67;;;;;;;17.34;100.00;99480.28;4469813;32;20100;-77
2023/10/11 08:18:29;;;;;;;45.03;19.35;;;;;;;17.45;100.00;99487.06;4469944;32;20093;-77
2023/10/11 08:20:57;;;;;;;48.28;18.83;;;;;;;17.02;100.00;99484.50;4468371;32;20121;-77
2023/10/11 08:23:31;;;;;;;38.42;17.80;;;;;;;17.03;100.00;99483.53;4472093;32;20523;-77
2023/10/11 08:26:05;;;;;;;37.97;17.75;;;;;;;16.52;100.00;99487.09;4470248;32;20118;-77
2023/10/11 08:28:34;;;;;;;;;;;;;;;16.80;100.00;99485.88;4475521;32;20088;-77
2023/10/11 08:31:02;;;;;;;47.55;19.52;;;;;;;17.00;100.00;99483.84;4473133;32;20310;-76
2023/10/11 08:33:32;;;;;;;45.38;20.17;;;;;;;17.16;100.00;99487.53;4470147;32;20454;-77
2023/10/11 08:35:59;;;;;;;49.05;21.33;;;;;;;16.88;100.00;99487.78;4468100;32;20172;-77
2023/10/11 08:38:27;;;;;;;50.63;20.25;;;;;;;16.90;100.00;99487.62;4471330;32;20085;-77
2023/10/11 08:41:00;;;;;;;46.55;19.65;;;;;;;17.13;100.00;99475.44;4469910;32;20104;-77
2023/10/11 08:43:29;;;;;;;42.47;18.12;;;;;;;16.91;100.00;99476.88;4472418;32;20201;-76
2023/10/11 08:46:09;;;;;;;49.20;19.27;;;;;;;17.19;100.00;99477.44;4473806;32;20126;-76
2023/10/11 08:48:38;;;;;;;50.38;19.98;;;;;;;17.24;100.00;99470.81;4467145;32;20168;-77
2023/10/11 08:51:12;;;;;;;53.50;23.05;;;;;;;17.52;100.00;99474.84;4468544;31;20093;-77
2023/10/11 08:53:46;;;;;;;;;;;;;;;17.46;100.00;99470.19;4471732;31;20458;-77
2023/10/11 08:56:14;;;;;;;43.30;18.70;;;;;;;17.31;100.00;99477.13;4473130;32;20036;-76
2023/10/11 08:59:02;;;;;;;47.22;19.50;;;;;;;17.59;100.00;99464.41;4469990;32;20824;-78
2023/10/11 09:01:34;;;;;;;54.05;21.95;;;;;;;17.79;100.00;99470.22;4470010;32;20626;-77
2023/10/11 09:04:07;;;;;;;52.08;21.98;;;;;;;17.69;100.00;99465.06;4467018;32;20112;-77
2023/10/11 09:06:37;;;;;;;40.60;18.80;;;;;;;17.73;100.00;99471.69;4471213;32;20115;-77
2023/10/11 09:09:04;;;;;;;49.65;21.05;;;;;;;17.95;100.00;99476.53;4473764;32;20211;-77
2023/10/11 09:11:32;;;;;;;51.10;21.17;;;;;;;18.05;100.00;99479.84;4470103;32;20489;-77
2023/10/11 09:14:09;;;;;;;45.40;19.87;;;;;;;18.17;100.00;99477.63;4468557;32;20092;-77
2023/10/11 09:16:37;;;;;;;52.67;22.15;;;;;;;18.13;100.00;99478.97;4474239;32;20170;-77
2023/10/11 09:19:10;;;;;;;42.08;19.15;;;;;;;17.88;100.00;99474.50;4465041;32;20108;-77
2023/10/11 09:21:38;;;;;;;41.15;17.92;;;;;;;17.97;100.00;99479.81;4470172;32;20139;-77
2023/10/11 09:24:28;;;;;;;39.55;18.05;;;;;;;18.27;100.00;99478.28;4469603;32;20138;-77
2023/10/11 09:29:47;;;;;;;46.37;20.00;;;;;;;18.41;100.00;99484.69;4465426;32;20092;-77
2023/10/11 09:32:19;;;;;;;48.53;21.00;;;;;;;18.44;100.00;99490.50;4466714;31;20109;-77
2023/10/11 09:34:47;;;;;;;50.55;21.87;;;;;;;18.73;100.00;99488.28;4468047;32;20120;-77
2023/10/11 09:37:14;;;;;;;40.92;20.17;;;;;;;18.81;100.00;99485.56;4471212;31;20096;-77
2023/10/11 09:39:45;;;;;;;42.62;18.62;;;;;;;19.04;100.00;99485.66;4469049;31;20156;-75
2023/10/11 09:42:13;;;;;;;35.58;17.60;;;;;;;19.08;100.00;99496.75;4472812;32;20112;-75
2023/10/11 09:44:45;;;;;;;33.15;15.73;;;;;;;19.22;100.00;99490.69;4472627;32;20084;-75
2023/10/11 09:47:17;;;;;;;39.35;16.00;;;;;;;19.23;100.00;99487.03;4468210;32;20130;-75
2023/10/11 09:49:47;;;;;;;35.78;17.10;;;;;;;19.24;100.00;99486.06;4474799;31;20112;-75
2023/10/11 09:52:17;;;;;;;31.05;15.00;;;;;;;19.33;100.00;99479.69;4467389;31;20093;-75
2023/10/11 09:54:45;;;;;;;31.77;14.45;;;;;;;19.58;100.00;99482.16;4468234;31;20565;-75
2023/10/11 09:57:31;;;;;;;34.28;16.40;;;;;;;19.67;100.00;99480.25;4467618;32;20088;-77
2023/10/11 10:00:14;;;;;;;32.47;15.88;;;;;;;19.67;100.00;99480.25;4479041;32;20100;-75
2023/10/11 10:02:47;;;;;;;33.13;13.43;;;;;;;19.68;100.00;99482.75;4480100;31;20101;-75
2023/10/11 10:05:17;;;;;;;29.10;13.98;;;;;;;19.73;100.00;99478.69;4481388;32;20119;-75
2023/10/11 10:07:44;;;;;;;36.13;14.15;;;;;;;19.96;100.00;99482.19;4483370;32;20105;-75
2023/10/11 10:10:16;;;;;;;28.17;14.40;;;;;;;19.88;100.00;99473.44;4484122;31;20084;-75
2023/10/11 10:12:56;;;;;;;28.33;12.45;;;;;;;19.96;100.00;99473.41;4480296;31;20093;-75
2023/10/11 10:15:33;;;;;;;25.12;11.10;;;;;;;20.11;100.00;99481.41;4484371;31;20203;-77
2023/10/11 10:18:12;;;;;;;23.52;12.05;;;;;;;20.32;100.00;99468.19;4466890;32;20097;-77
2023/10/11 10:20:47;;;;;;;21.23;10.77;;;;;;;20.25;100.00;99461.94;4481339;32;20568;-77
2023/10/11 10:23:15;;;;;;;20.48;10.32;;;;;;;20.53;100.00;99461.28;4481531;32;20145;-77
2023/10/11 10:26:02;;;;;;;15.88;7.60;;;;;;;20.51;100.00;99460.66;4484191;32;20096;-78
2023/10/11 10:28:35;;;;;;;18.05;8.05;;;;;;;20.66;100.00;99458.84;4482393;31;20157;-77
2023/10/11 10:31:13;;;;;;;14.20;7.00;;;;;;;20.74;100.00;99453.44;4483201;31;20096;-77
2023/10/11 10:33:41;;;;;;;13.70;6.75;;;;;;;21.00;98.86;99452.09;4483641;31;20153;-77
2023/10/11 10:36:21;;;;;;;12.40;6.25;;;;;;;21.25;98.16;99446.38;4484372;31;20096;-77
2023/10/11 10:38:58;;;;;;;10.15;6.15;;;;;;;21.33;97.74;99438.25;4485081;31;20118;-77
2023/10/11 10:41:32;;;;;;;15.57;6.60;;;;;;;21.42;95.60;99439.81;4485259;31;20085;-77
2023/10/11 10:44:12;;;;;;;14.95;7.90;;;;;;;21.46;95.47;99442.91;4483778;31;20104;-75
2023/10/11 10:46:51;;;;;;;12.43;7.40;;;;;;;21.55;96.09;99436.44;4485166;31;20100;-76
2023/10/11 10:49:23;;;;;;;12.95;6.97;;;;;;;21.73;93.98;99433.31;4483300;32;20084;-75
2023/10/11 10:51:53;;;;;;;10.75;6.78;;;;;;;21.72;95.00;99429.00;4484520;31;20112;-75
2023/10/11 10:54:25;;;;;;;15.55;8.18;;;;;;;21.72;93.99;99428.19;4478536;31;20112;-75
2023/10/11 10:56:53;;;;;;;12.02;6.87;;;;;;;21.83;93.17;99435.63;4481450;32;20123;-76
2023/10/11 10:59:21;;;;;;;12.23;6.40;;;;;;;21.56;92.42;99431.94;4473890;32;20209;-76
2023/10/11 11:01:55;;;;;;;10.95;5.95;;;;;;;21.60;93.24;99417.19;4481679;32;20468;-75
2023/10/11 11:04:28;;;;;;;10.90;6.55;;;;;;;21.75;93.05;99422.44;4480906;31;20157;-75
2023/10/11 11:06:58;;;;;;;14.23;6.50;;;;;;;21.97;90.82;99408.03;4473014;32;20126;-75
2023/10/11 11:09:26;;;;;;;12.02;6.05;;;;;;;22.13;89.71;99406.91;4482932;32;20111;-75
2023/10/11 11:12:04;;;;;;;8.05;5.60;;;;;;;22.32;90.87;99407.25;4482841;31;20161;-75
2023/10/11 11:14:33;;;;;;;18.80;6.60;;;;;;;22.45;88.90;99403.81;4480685;32;20100;-75
2023/10/11 11:17:09;;;;;;;12.55;5.90;;;;;;;22.48;87.67;99409.59;4470138;32;20113;-76
2023/10/11 11:19:37;;;;;;;9.05;5.32;;;;;;;22.67;86.18;99401.84;4477375;32;20103;-76
2023/10/11 11:22:11;;;;;;;11.57;5.80;;;;;;;22.66;86.72;99398.34;4482881;31;20789;-76
2023/10/11 11:24:43;;;;;;;13.52;5.80;;;;;;;22.38;88.60;99400.28;4484528;31;20123;-75
2023/10/11 11:27:30;;;;;;;10.23;5.70;;;;;;;22.49;86.79;99397.88;4477943;31;20536;-76
2023/10/11 11:30:16;;;;;;;15.90;5.82;;;;;;;22.73;87.87;99394.88;4469353;32;20430;-76
2023/10/11 11:32:45;;;;;;;16.20;6.03;;;;;;;22.84;85.07;99387.09;4469544;32;20073;-76
2023/10/11 11:35:28;;;;;;;12.43;5.90;;;;;;;22.55;86.01;99382.09;4480380;32;20096;-75
2023/10/11 11:38:07;;;;;;;9.88;5.72;;;;;;;22.79;84.51;99370.84;4480211;31;20093;-76
2023/10/11 11:40:37;;;;;;;8.88;5.25;;;;;;;22.91;84.93;99372.91;4475239;31;20100;-75
2023/10/11 11:43:05;;;;;;;10.55;5.28;;;;;;;23.13;82.73;99369.06;4476723;31;20569;-76
2023/10/11 11:45:36;;;;;;;9.85;6.03;;;;;;;23.33;84.41;99361.09;4481662;31;20413;-75
2023/10/11 11:48:07;;;;;;;9.52;5.62;;;;;;;23.44;81.06;99366.81;4483474;31;20100;-75
2023/10/11 11:50:37;;;;;;;12.40;5.22;;;;;;;23.46;81.25;99360.25;4484584;31;20631;-75
2023/10/11 11:53:06;;;;;;;13.35;5.35;;;;;;;23.33;82.54;99352.22;4482519;31;20127;-77
2023/10/11 11:55:35;;;;;;;13.77;5.12;;;;;;;22.95;83.21;99352.78;4475021;31;20571;-75
2023/10/11 11:58:10;;;;;;;9.70;4.07;;;;;;;23.12;82.23;99351.41;4475661;32;20093;-75
2023/10/11 12:00:45;;;;;;;5.85;2.58;;;;;;;23.40;80.28;99355.72;4475759;32;20126;-74
2023/10/11 12:03:14;;;;;;;7.93;3.03;;;;;;;23.59;74.16;99362.09;4473453;32;20127;-75
2023/10/11 12:05:42;;;;;;;7.25;2.58;;;;;;;23.69;73.56;99359.81;4473690;32;20092;-75
2023/10/11 12:08:21;;;;;;;5.12;2.60;;;;;;;23.83;75.30;99355.28;4474421;32;20084;-77
2023/10/11 12:10:49;;;;;;;8.15;2.50;;;;;;;23.98;73.48;99356.91;4474595;32;20287;-76
2023/10/11 12:13:25;;;;;;;5.90;2.75;;;;;;;23.92;72.31;99351.38;4475102;31;20129;-75
2023/10/11 12:15:57;;;;;;;8.55;3.75;;;;;;;24.17;70.93;99352.53;4477102;32;20096;-74
2023/10/11 12:18:32;;;;;;;6.65;2.53;;;;;;;24.18;70.61;99354.16;4473578;32;20161;-76
2023/10/11 12:21:10;;;;;;;6.30;3.50;;;;;;;24.17;70.98;99355.22;4471884;32;20255;-74
2023/10/11 12:23:46;;;;;;;8.68;3.62;;;;;;;24.16;70.42;99349.00;4476030;32;20092;-74
2023/10/11 12:26:17;;;;;;;9.77;3.10;;;;;;;24.25;70.71;99350.44;4476200;31;20092;-74
2023/10/11 12:28:45;;;;;;;6.82;2.60;;;;;;;24.51;70.57;99348.69;4473518;31;20499;-76
2023/10/11 12:31:13;;;;;;;5.93;2.85;;;;;;;24.45;69.51;99344.16;4476276;32;20450;-77
2023/10/11 12:33:43;;;;;;;5.82;3.00;;;;;;;24.47;68.95;99343.94;4478513;31;20507;-76
2023/10/11 12:36:11;;;;;;;5.87;2.20;;;;;;;24.51;69.89;99337.13;4475175;32;20113;-76
2023/10/11 12:38:41;;;;;;;8.43;2.53;;;;;;;24.38;70.77;99338.03;4478914;31;20100;-76
2023/10/11 12:41:14;;;;;;;9.45;3.00;;;;;;;24.20;71.05;99336.84;4474028;31;20126;-77
2023/10/11 12:43:41;;;;;;;7.12;2.70;;;;;;;24.44;70.54;99337.97;4477477;32;20080;-75